Terminal Aerodrome Forecast
Issued by NWS

Home | Current Version | Previous Version | Text Only | Print | Product List | Glossary On
Versions: 1 2 3 4 5 6 7 8 9 10 11 12 13 14 15 16 17 18 19 20 21
000
FTUS43 KDMX 251729
TAFMCW
TAF
KMCW 251729Z 2518/2618 05015KT 5SM BR OVC008
     FM252000 05015KT 3SM -RA BR OVC006
     FM260400 06010KT P6SM VCSH OVC005
     FM261000 02007KT 1SM BR VCSH OVC003
     FM261500 01007KT 1 1/2SM BR OVC005=

USA.gov is the U.S. government's official web portal to all federal, state and local government web resources and services.